Time;durP1;ratioP1;P1;durP2;ratioP2;P2;SDS_P1;SDS_P2;PMS_P1;PMS_P2;Temp;Humidity;BMP_temperature;BMP_pressure;BME280_temperature;BME280_humidity;BME280_pressure;Samples;Min_cycle;Max_cycle;Signal;HPM_P1;HPM_P2
2022/12/15 00:39:39;;;;;;;16.77;6.50;;;-5.20;99.90;;;;;;5055748;28;20412;-77
2022/12/15 00:42:06;;;;;;;11.27;6.73;;;-5.20;99.90;;;;;;5038147;28;20413;-78
2022/12/15 00:44:32;;;;;;;8.00;5.70;;;-5.20;99.90;;;;;;5054817;28;20425;-79
2022/12/15 00:46:58;;;;;;;10.87;6.73;;;-5.30;99.90;;;;;;5054713;28;20412;-79
2022/12/15 01:20:17;;;;;;;13.13;5.57;;;-5.30;99.90;;;;;;5058112;28;20400;-78
2022/12/15 01:22:57;;;;;;;10.53;5.97;;;-5.40;99.90;;;;;;5056978;28;20464;-78
2022/12/15 01:25:24;;;;;;;9.37;5.43;;;-5.30;99.90;;;;;;5057671;28;20421;-78
2022/12/15 01:27:52;;;;;;;10.80;6.27;;;-5.30;99.90;;;;;;5057478;28;20409;-78
2022/12/15 01:30:20;;;;;;;8.90;5.77;;;-5.30;99.90;;;;;;5057538;28;20405;-77
2022/12/15 01:32:46;;;;;;;12.27;6.97;;;-5.30;99.90;;;;;;5058114;28;20505;-78
2022/12/15 01:35:13;;;;;;;13.63;7.10;;;-5.30;99.90;;;;;;5058197;28;20464;-78
2022/12/15 01:37:38;;;;;;;8.37;6.03;;;-5.30;99.90;;;;;;5060503;28;20477;-78
2022/12/15 01:42:51;;;;;;;11.33;8.00;;;-5.30;99.90;;;;;;5058593;28;20237;-79
2022/12/15 01:45:23;;;;;;;18.17;8.00;;;-5.30;99.90;;;;;;5057365;28;20475;-78
2022/12/15 01:47:55;;;;;;;12.97;5.80;;;-5.40;99.90;;;;;;5057369;28;20837;-78
2022/12/15 01:50:23;;;;;;;9.10;6.27;;;-5.40;99.90;;;;;;5055901;28;20919;-78
2022/12/15 01:52:49;;;;;;;10.90;6.80;;;-5.40;99.90;;;;;;5057055;28;20402;-78
2022/12/15 01:55:17;;;;;;;11.40;6.40;;;-5.40;99.90;;;;;;5057528;28;20429;-77
2022/12/15 01:57:45;;;;;;;11.23;7.70;;;-5.40;99.90;;;;;;5056557;28;20413;-78
2022/12/15 02:00:11;;;;;;;13.93;8.30;;;-5.50;99.90;;;;;;5057919;28;20413;-78
2022/12/15 02:02:37;;;;;;;13.10;7.00;;;-5.50;99.90;;;;;;5057826;28;20441;-78
2022/12/15 02:05:05;;;;;;;10.50;6.37;;;-5.50;99.90;;;;;;5057211;28;20424;-77
2022/12/15 02:07:30;;;;;;;12.50;7.60;;;-5.50;99.90;;;;;;5056022;28;20429;-78
2022/12/15 02:09:59;;;;;;;8.27;5.73;;;-5.50;99.90;;;;;;5055943;28;20460;-78
2022/12/15 02:12:40;;;;;;;14.60;5.77;;;-5.50;99.90;;;;;;5056548;28;20170;-78
2022/12/15 02:15:15;;;;;;;8.23;4.77;;;-5.60;99.90;;;;;;5057647;28;20427;-78
2022/12/15 02:17:54;;;;;;;10.13;5.10;;;-5.60;99.90;;;;;;5057650;28;20401;-78
2022/12/15 02:20:34;;;;;;;10.43;6.07;;;-5.60;99.90;;;;;;5056059;28;20409;-77
2022/12/15 02:23:33;;;;;;;11.00;6.70;;;-5.60;99.90;;;;;;5056182;28;20552;-77
2022/12/15 02:26:29;;;;;;;10.93;6.80;;;-5.60;99.90;;;;;;5057061;28;20426;-78
2022/12/15 02:29:27;;;;;;;6.23;4.73;;;-5.70;99.90;;;;;;5057331;28;20401;-77
2022/12/15 02:32:15;;;;;;;15.43;6.57;;;-5.70;99.90;;;;;;5056838;28;20457;-78
2022/12/15 02:35:06;;;;;;;9.60;6.30;;;-5.70;99.90;;;;;;5056441;28;20453;-77
2022/12/15 02:37:35;;;;;;;8.63;6.20;;;-5.70;99.90;;;;;;5056727;28;20409;-78
2022/12/15 02:40:02;;;;;;;11.10;6.20;;;-5.80;99.90;;;;;;5057057;28;20496;-78
2022/12/15 02:42:29;;;;;;;9.63;6.03;;;-5.80;99.90;;;;;;5056416;28;20492;-77
2022/12/15 02:45:08;;;;;;;18.47;7.27;;;-5.80;99.90;;;;;;5056250;28;20421;-78
2022/12/15 02:48:02;;;;;;;9.03;6.30;;;-5.80;99.90;;;;;;5056650;28;20926;-78
2022/12/15 02:50:50;;;;;;;13.67;5.93;;;-5.80;99.90;;;;;;5056746;28;20413;-78
2022/12/15 02:53:25;;;;;;;10.13;5.90;;;-5.80;99.90;;;;;;5057760;28;20922;-78
2022/12/15 02:56:19;;;;;;;10.10;6.33;;;-5.80;99.90;;;;;;5056162;28;20412;-78
2022/12/15 02:59:15;;;;;;;9.30;6.50;;;-5.90;99.90;;;;;;5057316;28;20405;-78
2022/12/15 03:01:58;;;;;;;10.50;6.43;;;-5.90;99.90;;;;;;5057519;28;20471;-78
2022/12/15 03:04:25;;;;;;;13.17;7.80;;;-5.90;99.90;;;;;;5056004;28;20467;-77
2022/12/15 03:06:59;;;;;;;15.13;6.10;;;-5.90;99.90;;;;;;5055577;28;20437;-77
2022/12/15 03:09:24;;;;;;;15.43;9.13;;;-5.90;99.90;;;;;;5056096;28;20413;-78
2022/12/15 03:11:50;;;;;;;12.03;8.40;;;-5.90;99.90;;;;;;5057278;28;20412;-78
2022/12/15 03:14:15;;;;;;;17.07;9.27;;;-5.90;99.90;;;;;;5056211;28;20610;-78
2022/12/15 03:16:41;;;;;;;16.13;7.23;;;-5.90;99.90;;;;;;5056178;28;20171;-78
2022/12/15 03:19:06;;;;;;;13.40;8.40;;;-5.90;99.90;;;;;;5056438;28;20513;-78
2022/12/15 03:21:32;;;;;;;15.03;7.90;;;-5.80;99.90;;;;;;5056708;28;20198;-77
2022/12/15 03:23:58;;;;;;;15.97;8.60;;;-5.90;99.90;;;;;;5056162;28;20213;-77
2022/12/15 03:26:23;;;;;;;11.57;6.47;;;-5.80;99.90;;;;;;5055092;28;20171;-78
2022/12/15 03:28:49;;;;;;;13.90;6.00;;;-5.90;99.90;;;;;;5057162;28;20202;-78
2022/12/15 03:31:14;;;;;;;12.20;7.27;;;-5.90;99.90;;;;;;5056826;28;20285;-78
2022/12/15 03:33:40;;;;;;;33.20;10.10;;;-5.90;99.90;;;;;;5055734;28;20719;-78
2022/12/15 03:36:06;;;;;;;15.80;7.60;;;-5.90;99.90;;;;;;5057622;28;20644;-78
2022/12/15 03:38:31;;;;;;;13.73;8.77;;;-5.90;99.90;;;;;;5057101;28;20174;-78
2022/12/15 03:40:57;;;;;;;11.13;6.90;;;-6.00;99.90;;;;;;5057178;28;20417;-78
2022/12/15 03:43:22;;;;;;;14.33;7.47;;;-5.90;99.90;;;;;;5056884;28;20203;-78
2022/12/15 03:45:48;;;;;;;11.80;7.10;;;-5.90;99.90;;;;;;5057186;28;20179;-78
2022/12/15 03:48:14;;;;;;;20.90;9.20;;;-5.90;99.90;;;;;;5055781;28;20237;-78
2022/12/15 03:50:39;;;;;;;18.63;12.00;;;-5.90;99.90;;;;;;5057154;28;20170;-79
2022/12/15 03:53:05;;;;;;;18.60;7.67;;;-6.00;99.90;;;;;;5056080;28;20178;-78
2022/12/15 03:55:31;;;;;;;11.23;6.23;;;-6.00;99.90;;;;;;5057988;28;20171;-79
2022/12/15 03:57:57;;;;;;;12.30;6.90;;;-6.00;99.90;;;;;;5058179;28;20487;-78
2022/12/15 04:00:24;;;;;;;22.63;9.00;;;-6.00;99.90;;;;;;5058967;28;20178;-78
2022/12/15 04:02:49;;;;;;;15.53;9.23;;;-5.90;99.90;;;;;;5057806;28;20460;-78
2022/12/15 04:05:24;;;;;;;13.10;6.77;;;-6.00;99.90;;;;;;5056920;28;20437;-78
2022/12/15 04:07:50;;;;;;;19.20;10.53;;;-6.00;99.90;;;;;;5058053;28;20174;-78
2022/12/15 04:10:16;;;;;;;17.57;6.97;;;-6.00;99.90;;;;;;5057728;28;20504;-78
2022/12/15 04:12:42;;;;;;;22.03;7.07;;;-6.00;99.90;;;;;;5058070;28;20501;-78
2022/12/15 04:15:09;;;;;;;13.00;6.83;;;-5.90;99.90;;;;;;5057157;28;20425;-78
2022/12/15 04:17:34;;;;;;;12.33;7.33;;;-6.00;99.90;;;;;;5057734;28;20185;-78
2022/12/15 04:20:09;;;;;;;12.23;9.00;;;-6.00;99.90;;;;;;5057125;28;20504;-78
2022/12/15 04:22:46;;;;;;;17.73;7.73;;;-6.00;99.90;;;;;;5057645;28;20193;-78
2022/12/15 05:33:56;;;;;;;18.03;6.07;;;-6.30;99.90;;;;;;5057381;28;20428;-78
2022/12/15 05:36:22;;;;;;;10.13;6.13;;;-6.30;99.90;;;;;;5057801;28;20405;-78
2022/12/15 05:38:49;;;;;;;19.27;7.70;;;-6.30;99.90;;;;;;5057804;28;20401;-78
2022/12/15 05:41:16;;;;;;;10.80;5.90;;;-6.30;99.90;;;;;;5058132;28;20433;-78
2022/12/15 05:43:41;;;;;;;10.07;6.50;;;-6.30;99.90;;;;;;5058562;28;20495;-78
2022/12/15 05:46:07;;;;;;;13.80;8.37;;;-6.30;99.90;;;;;;5058924;28;20479;-78
2022/12/15 05:48:32;;;;;;;13.90;6.50;;;-6.30;99.90;;;;;;5059545;28;20182;-78
2022/12/15 05:51:03;;;;;;;10.03;6.07;;;-6.20;99.90;;;;;;5059288;28;20159;-78
2022/12/15 05:53:29;;;;;;;15.60;8.43;;;-6.20;99.90;;;;;;5058803;28;20660;-78
2022/12/15 05:56:01;;;;;;;15.07;7.37;;;-6.20;99.90;;;;;;5057850;28;20409;-78
2022/12/15 05:58:26;;;;;;;12.57;6.37;;;-6.20;99.90;;;;;;5056271;28;20163;-78
2022/12/15 06:00:52;;;;;;;13.80;7.70;;;-6.20;99.90;;;;;;5056541;28;20470;-79
2022/12/15 06:03:17;;;;;;;11.07;6.80;;;-6.20;99.90;;;;;;5056527;28;20256;-78
2022/12/15 06:05:43;;;;;;;13.13;6.93;;;-6.20;99.90;;;;;;5056248;28;20175;-79
2022/12/15 06:08:08;;;;;;;13.17;6.23;;;-6.20;99.90;;;;;;5057011;28;20167;-78
2022/12/15 06:10:33;;;;;;;9.87;5.27;;;-6.20;99.90;;;;;;5056068;28;20534;-77
2022/12/15 06:13:00;;;;;;;12.80;9.47;;;-6.20;99.90;;;;;;5054897;28;20185;-77
2022/12/15 06:15:27;;;;;;;17.13;7.73;;;-6.30;99.90;;;;;;5056408;28;20174;-78
2022/12/15 06:17:56;;;;;;;14.83;8.23;;;-6.30;99.90;;;;;;5061958;28;20412;-77
2022/12/15 06:20:23;;;;;;;8.23;6.87;;;-6.30;99.90;;;;;;5064261;28;20447;-78
2022/12/15 06:22:49;;;;;;;14.50;6.90;;;-6.30;99.90;;;;;;5062976;28;20449;-77
2022/12/15 06:25:14;;;;;;;13.17;7.57;;;-6.30;99.90;;;;;;5061464;28;20447;-77
2022/12/15 06:27:40;;;;;;;18.03;7.10;;;-6.30;99.90;;;;;;5060699;28;20159;-78
2022/12/15 06:30:06;;;;;;;13.13;7.03;;;-6.30;99.90;;;;;;5060283;28;20173;-77
2022/12/15 06:32:34;;;;;;;16.10;8.00;;;-6.30;99.90;;;;;;5058936;28;20217;-77
2022/12/15 06:35:00;;;;;;;15.53;8.13;;;-6.40;99.90;;;;;;5059254;28;20580;-77
2022/12/15 06:37:26;;;;;;;18.60;9.80;;;-6.40;99.90;;;;;;5059153;28;20405;-77
2022/12/15 06:39:51;;;;;;;11.33;7.23;;;-6.50;99.90;;;;;;5053593;28;20463;-77
2022/12/15 06:42:17;;;;;;;11.83;8.07;;;-6.50;99.90;;;;;;5053214;28;20205;-77
2022/12/15 06:44:42;;;;;;;12.47;8.97;;;-6.50;99.90;;;;;;5051374;28;20191;-77
2022/12/15 06:47:08;;;;;;;14.97;8.73;;;-6.50;99.90;;;;;;5053171;28;20177;-77
2022/12/15 06:49:33;;;;;;;15.47;8.03;;;-6.50;99.90;;;;;;5053110;28;20174;-77
2022/12/15 06:51:59;;;;;;;24.27;10.43;;;-6.60;99.90;;;;;;5054538;28;20604;-78
2022/12/15 06:54:24;;;;;;;21.13;7.90;;;-6.60;99.90;;;;;;5052023;28;20205;-77
2022/12/15 06:56:51;;;;;;;19.20;10.50;;;-6.50;99.90;;;;;;5055085;28;20178;-77
2022/12/15 06:59:16;;;;;;;14.20;7.67;;;-6.60;99.90;;;;;;5052942;28;20217;-77
2022/12/15 07:01:42;;;;;;;11.30;7.87;;;-6.60;99.90;;;;;;5051930;28;20405;-77
2022/12/15 07:04:09;;;;;;;15.37;7.00;;;-6.60;99.90;;;;;;5051033;28;20465;-77
2022/12/15 07:06:36;;;;;;;13.17;9.30;;;-6.50;99.90;;;;;;5054266;28;20175;-78
2022/12/15 07:09:03;;;;;;;14.83;8.67;;;-6.50;99.90;;;;;;5053868;28;20822;-78
2022/12/15 07:11:29;;;;;;;22.67;7.97;;;-6.50;99.90;;;;;;5052732;28;20922;-77
2022/12/15 07:13:54;;;;;;;13.27;8.03;;;-6.50;99.90;;;;;;5054232;28;20441;-77
2022/12/15 07:16:21;;;;;;;14.23;7.60;;;-6.50;99.90;;;;;;5053271;28;20186;-75
2022/12/15 07:18:47;;;;;;;9.07;6.73;;;-6.40;99.90;;;;;;5056369;28;20545;-77
2022/12/15 07:21:12;;;;;;;13.27;7.03;;;-6.40;99.90;;;;;;5060850;28;20401;-77
2022/12/15 07:23:38;;;;;;;18.93;8.93;;;-6.40;99.90;;;;;;5062316;28;20281;-77
2022/12/15 07:26:06;;;;;;;15.53;9.40;;;-6.40;99.90;;;;;;5054393;28;20163;-77
2022/12/15 07:28:32;;;;;;;23.70;9.20;;;-6.30;99.90;;;;;;5054909;28;20528;-78
2022/12/15 07:31:03;;;;;;;17.87;10.10;;;-6.30;99.90;;;;;;5056324;28;20424;-77
2022/12/15 07:33:30;;;;;;;12.60;8.60;;;-6.20;99.90;;;;;;5054953;28;20444;-78
2022/12/15 07:35:56;;;;;;;18.77;8.33;;;-6.00;99.90;;;;;;5053284;28;20449;-78
2022/12/15 07:38:22;;;;;;;17.77;7.63;;;-6.00;99.90;;;;;;5053715;28;20413;-78
2022/12/15 07:40:48;;;;;;;17.23;8.87;;;-5.90;99.90;;;;;;5053788;28;20173;-78
2022/12/15 07:43:13;;;;;;;24.40;12.47;;;-5.70;99.90;;;;;;5051925;28;20340;-77
2022/12/15 07:45:39;;;;;;;15.17;6.97;;;-5.50;99.90;;;;;;5053022;28;20548;-78
2022/12/15 07:48:04;;;;;;;12.57;7.63;;;-5.40;99.90;;;;;;5057104;28;20174;-79
2022/12/15 07:50:30;;;;;;;16.77;8.87;;;-5.20;99.90;;;;;;5052467;28;20175;-77
2022/12/15 07:52:55;;;;;;;14.03;7.63;;;-5.10;99.90;;;;;;5051923;28;20174;-77
2022/12/15 07:55:22;;;;;;;14.33;7.97;;;-5.00;99.90;;;;;;5054494;28;20167;-78
2022/12/15 07:57:48;;;;;;;14.10;8.73;;;-4.90;99.90;;;;;;5056299;28;20266;-78
2022/12/15 08:00:15;;;;;;;18.97;9.67;;;-4.80;99.90;;;;;;5056660;28;20425;-78
2022/12/15 08:02:41;;;;;;;13.30;7.83;;;-4.70;99.90;;;;;;5053271;28;20226;-77
2022/12/15 08:05:08;;;;;;;16.03;8.97;;;-4.60;99.90;;;;;;5053213;28;20429;-77
2022/12/15 08:07:34;;;;;;;20.67;11.27;;;-4.60;99.90;;;;;;5065388;28;20425;-78
2022/12/15 08:10:00;;;;;;;20.40;10.10;;;-4.50;99.90;;;;;;5056818;28;20575;-79
2022/12/15 08:12:28;;;;;;;22.80;11.23;;;-4.40;99.90;;;;;;5053844;28;20254;-78
2022/12/15 08:14:54;;;;;;;22.63;11.40;;;-4.30;99.90;;;;;;5054501;28;20286;-77
2022/12/15 08:17:20;;;;;;;19.13;12.30;;;-4.30;99.90;;;;;;5051958;28;20468;-77
2022/12/15 08:19:45;;;;;;;17.70;9.77;;;-4.10;99.90;;;;;;5052596;28;20233;-77
2022/12/15 08:22:11;;;;;;;21.20;10.23;;;-4.00;99.90;;;;;;5058716;28;20405;-79
2022/12/15 08:24:36;;;;;;;33.57;12.73;;;-3.90;99.90;;;;;;5057210;28;20250;-79
2022/12/15 08:27:02;;;;;;;29.57;11.07;;;-3.90;99.90;;;;;;5058110;28;20177;-79
2022/12/15 08:29:28;;;;;;;18.90;10.60;;;-3.70;99.90;;;;;;5060721;28;20163;-79
2022/12/15 08:31:53;;;;;;;23.30;12.30;;;-3.70;99.90;;;;;;5063250;28;20198;-77
2022/12/15 08:34:19;;;;;;;21.30;11.27;;;-3.70;99.90;;;;;;5063242;28;20191;-79
2022/12/15 08:36:45;;;;;;;26.77;13.10;;;-3.60;99.90;;;;;;5060451;28;20163;-80
2022/12/15 08:39:10;;;;;;;30.40;14.93;;;-3.60;99.90;;;;;;5059598;28;20971;-80
2022/12/15 08:41:36;;;;;;;33.13;14.00;;;-3.50;99.90;;;;;;5061128;28;20181;-79
2022/12/15 08:44:02;;;;;;;29.97;14.70;;;-3.50;99.90;;;;;;5058906;28;20787;-79
2022/12/15 08:49:19;;;;;;;33.57;14.47;;;-3.50;99.90;;;;;;5062860;28;20408;-78
2022/12/15 08:51:45;;;;;;;35.37;14.60;;;-3.40;99.90;;;;;;5061568;28;20406;-79
2022/12/15 08:54:11;;;;;;;24.57;14.80;;;-3.40;99.90;;;;;;5059456;28;20434;-79
2022/12/15 08:56:36;;;;;;;25.73;12.77;;;-3.30;99.90;;;;;;5058982;28;20168;-78
2022/12/15 08:59:02;;;;;;;31.53;15.20;;;-3.30;99.90;;;;;;5058582;28;20703;-80
2022/12/15 09:01:31;;;;;;;25.97;13.97;;;-3.30;99.90;;;;;;5058001;28;20520;-81
2022/12/15 09:03:57;;;;;;;38.90;15.00;;;-3.20;99.90;;;;;;5058971;28;20206;-77
2022/12/15 09:06:29;;;;;;;43.27;16.27;;;-3.20;99.90;;;;;;5060705;28;20910;-77
2022/12/15 09:08:56;;;;;;;33.73;16.43;;;-3.10;99.90;;;;;;5069994;28;20412;-77
2022/12/15 09:11:23;;;;;;;47.10;17.00;;;-3.10;99.90;;;;;;5063125;28;20421;-79
2022/12/15 09:13:49;;;;;;;29.13;14.00;;;-3.10;99.90;;;;;;5058447;28;20436;-79
2022/12/15 09:16:16;;;;;;;41.77;15.07;;;-3.10;99.90;;;;;;5057014;28;20779;-80
2022/12/15 09:18:43;;;;;;;33.03;14.73;;;-3.00;99.90;;;;;;5057749;28;20889;-80
2022/12/15 09:21:10;;;;;;;48.23;17.37;;;-3.10;99.90;;;;;;5058664;28;20410;-79
2022/12/15 09:23:36;;;;;;;31.67;13.90;;;-3.10;99.90;;;;;;5055666;28;20551;-77
2022/12/15 09:26:08;;;;;;;37.37;18.03;;;-3.00;99.90;;;;;;5054045;28;20410;-77
2022/12/15 09:28:33;;;;;;;36.70;16.00;;;-3.10;99.90;;;;;;5053814;28;20828;-78
2022/12/15 09:31:32;;;;;;;34.40;15.60;;;-3.10;99.90;;;;;;5055304;28;20432;-78
2022/12/15 09:33:59;;;;;;;31.93;15.80;;;-3.10;99.90;;;;;;5053150;28;20202;-77
2022/12/15 09:36:26;;;;;;;39.63;14.57;;;-3.10;99.90;;;;;;5055612;28;20420;-78
2022/12/15 09:38:51;;;;;;;40.27;15.50;;;-3.10;99.90;;;;;;5053983;28;20501;-77
2022/12/15 09:41:27;;;;;;;38.30;16.33;;;-3.10;99.90;;;;;;5061115;28;20853;-77
2022/12/15 09:44:16;;;;;;;38.67;15.90;;;-2.90;99.90;;;;;;5056482;28;20198;-81
2022/12/15 09:46:56;;;;;;;41.47;17.87;;;-2.80;99.90;;;;;;5058937;28;20421;-78
2022/12/15 09:49:24;;;;;;;41.13;15.93;;;-2.80;99.90;;;;;;5059575;28;20496;-79
2022/12/15 09:52:17;;;;;;;27.70;13.27;;;-2.80;99.90;;;;;;5059747;28;20440;-79
2022/12/15 09:54:43;;;;;;;29.53;15.13;;;-2.70;99.90;;;;;;5053691;28;20433;-78
2022/12/15 09:57:30;;;;;;;41.23;17.07;;;-2.60;99.90;;;;;;5059832;28;20409;-79
2022/12/15 10:00:24;;;;;;;34.83;16.13;;;-2.70;99.90;;;;;;5061224;28;20502;-77
2022/12/15 10:03:11;;;;;;;40.80;14.13;;;-2.60;99.90;;;;;;5055911;28;20496;-78
2022/12/15 10:05:56;;;;;;;32.63;16.10;;;-2.50;99.90;;;;;;5059461;28;20436;-78
2022/12/15 10:08:26;;;;;;;44.20;17.30;;;-2.50;99.90;;;;;;5062424;28;20402;-78
2022/12/15 10:11:00;;;;;;;44.70;16.80;;;-2.50;99.90;;;;;;5060240;28;20390;-79
2022/12/15 10:13:48;;;;;;;37.20;15.63;;;-2.40;99.90;;;;;;5059786;28;20421;-78
2022/12/15 10:16:25;;;;;;;39.10;15.57;;;-2.40;99.90;;;;;;5059671;28;20420;-79
2022/12/15 10:19:06;;;;;;;40.83;16.20;;;-2.60;99.90;;;;;;5059907;28;20917;-77
2022/12/15 10:21:32;;;;;;;36.83;17.27;;;-2.50;99.90;;;;;;5058673;28;20409;-78
2022/12/15 10:24:19;;;;;;;34.90;15.33;;;-2.50;99.90;;;;;;5059382;28;20487;-78
2022/12/15 10:27:01;;;;;;;37.43;16.80;;;-2.50;99.90;;;;;;5059988;28;20393;-78
2022/12/15 10:29:38;;;;;;;36.63;17.17;;;-2.50;99.90;;;;;;5058941;28;20412;-79
2022/12/15 10:32:15;;;;;;;41.30;18.17;;;-2.40;99.90;;;;;;5059472;28;20504;-78
2022/12/15 10:34:41;;;;;;;37.70;17.03;;;-2.40;99.90;;;;;;5056630;28;20579;-78
2022/12/15 10:37:15;;;;;;;42.97;19.10;;;-2.20;99.90;;;;;;5058661;28;20556;-78
2022/12/15 10:39:43;;;;;;;37.90;18.40;;;-2.00;99.90;;;;;;5061940;28;20405;-78
2022/12/15 10:42:29;;;;;;;44.93;19.50;;;-1.60;99.90;;;;;;5061578;28;20501;-78
2022/12/15 10:44:58;;;;;;;41.00;18.50;;;-1.00;99.90;;;;;;5059173;28;20979;-78
2022/12/15 10:47:32;;;;;;;32.17;16.07;;;-0.80;99.90;;;;;;5058492;28;20815;-77
2022/12/15 10:50:21;;;;;;;36.90;19.70;;;-0.50;99.90;;;;;;5056474;28;20439;-77
2022/12/15 10:52:46;;;;;;;41.33;19.83;;;0.00;99.90;;;;;;5054015;28;20455;-78
2022/12/15 10:55:30;;;;;;;38.97;19.47;;;0.20;99.90;;;;;;5054277;28;20425;-77
2022/12/15 10:57:59;;;;;;;30.67;15.63;;;0.10;99.90;;;;;;5052833;28;20634;-77
2022/12/15 11:00:28;;;;;;;36.53;16.87;;;0.20;99.90;;;;;;5050881;28;20416;-76
2022/12/15 11:02:53;;;;;;;41.37;18.87;;;0.20;99.90;;;;;;5052794;28;20452;-77
2022/12/15 11:05:19;;;;;;;46.50;20.97;;;0.10;99.90;;;;;;5052745;28;20429;-77
2022/12/15 11:07:46;;;;;;;41.80;17.47;;;0.00;99.90;;;;;;5052754;28;20257;-77
2022/12/15 11:13:21;;;;;;;49.90;20.23;;;-0.30;99.90;;;;;;5054782;28;20405;-77
2022/12/15 11:15:49;;;;;;;43.60;18.37;;;-0.30;99.90;;;;;;5054159;28;20408;-77
2022/12/15 11:18:37;;;;;;;50.73;18.00;;;-0.40;99.90;;;;;;5051767;28;20413;-77
2022/12/15 11:21:10;;;;;;;35.27;18.93;;;-0.50;99.90;;;;;;5052501;28;20496;-77
2022/12/15 11:23:58;;;;;;;41.40;21.20;;;-0.70;99.90;;;;;;5052216;28;20452;-76
2022/12/15 11:26:41;;;;;;;46.27;19.20;;;-0.70;99.90;;;;;;5052596;28;20420;-77
2022/12/15 11:29:22;;;;;;;46.43;17.10;;;-0.90;99.90;;;;;;5052972;28;20401;-77
2022/12/15 11:31:49;;;;;;;36.23;18.43;;;-1.00;99.90;;;;;;5053713;28;20475;-77
2022/12/15 11:34:21;;;;;;;39.53;18.33;;;-1.00;99.90;;;;;;5053740;28;20431;-77
2022/12/15 11:37:38;;;;;;;58.63;22.97;;;-1.00;99.90;;;;;;5052085;28;20409;-77
2022/12/15 11:40:30;;;;;;;50.03;21.20;;;-1.00;99.90;;;;;;5040880;28;20425;-77
2022/12/15 11:43:30;;;;;;;52.80;19.70;;;-1.10;99.90;;;;;;5053166;28;20449;-77
2022/12/15 11:46:11;;;;;;;65.97;25.83;;;-1.30;99.90;;;;;;5054217;28;20917;-77
2022/12/15 11:48:46;;;;;;;65.30;25.43;;;-1.20;99.90;;;;;;5053783;28;20401;-78
2022/12/15 11:51:23;;;;;;;66.27;24.73;;;-1.00;99.90;;;;;;5052932;28;20409;-77
2022/12/15 11:54:09;;;;;;;45.17;20.03;;;-1.00;99.90;;;;;;5053048;28;20570;-78
2022/12/15 11:56:39;;;;;;;50.40;23.80;;;-1.00;99.90;;;;;;5053140;28;20766;-77
2022/12/15 11:59:21;;;;;;;59.53;24.87;;;-1.00;99.90;;;;;;5052968;28;20397;-76
2022/12/15 12:02:10;;;;;;;51.60;20.60;;;-0.80;99.90;;;;;;5051978;28;20400;-76
2022/12/15 12:04:50;;;;;;;54.70;23.20;;;-0.80;99.90;;;;;;5051601;28;20460;-76
2022/12/15 12:07:27;;;;;;;43.97;22.90;;;-0.60;99.90;;;;;;5051576;28;20431;-76
2022/12/15 12:10:02;;;;;;;48.87;24.13;;;-0.60;99.90;;;;;;5051768;28;20443;-77
2022/12/15 12:12:40;;;;;;;54.97;20.47;;;-0.40;99.90;;;;;;5051700;28;20427;-77
2022/12/15 12:15:12;;;;;;;47.83;22.07;;;-0.30;99.90;;;;;;5052930;28;20471;-77
2022/12/15 12:18:10;;;;;;;49.23;24.33;;;-0.40;99.90;;;;;;5052266;28;20405;-77
2022/12/15 12:21:05;;;;;;;49.37;20.17;;;-0.30;99.90;;;;;;5053541;28;20917;-77
2022/12/15 12:23:55;;;;;;;68.63;28.27;;;-0.10;99.90;;;;;;5051668;28;20488;-77
2022/12/15 12:26:28;;;;;;;58.87;26.33;;;0.10;99.90;;;;;;5052683;28;20405;-77
2022/12/15 12:29:05;;;;;;;57.57;21.97;;;0.10;99.90;;;;;;5053889;28;20511;-77
2022/12/15 12:31:44;;;;;;;61.40;24.63;;;0.00;99.90;;;;;;5053029;28;20454;-78
2022/12/15 12:34:25;;;;;;;50.77;22.77;;;-0.10;99.90;;;;;;5052231;28;20433;-78
2022/12/15 12:36:53;;;;;;;51.70;23.03;;;-0.20;99.90;;;;;;5054256;28;20408;-78
2022/12/15 12:39:23;;;;;;;45.97;19.90;;;-0.20;99.90;;;;;;5047689;28;20433;-78
2022/12/15 12:42:08;;;;;;;51.20;24.80;;;-0.10;99.90;;;;;;5034660;28;20528;-78
2022/12/15 12:44:36;;;;;;;51.90;23.50;;;0.10;99.90;;;;;;5032911;28;20457;-78
2022/12/15 12:47:22;;;;;;;51.60;21.23;;;0.40;99.90;;;;;;5033492;28;20416;-78
2022/12/15 12:49:53;;;;;;;55.00;20.30;;;0.40;99.90;;;;;;5032863;28;20413;-78
2022/12/15 12:52:26;;;;;;;54.70;23.40;;;0.60;99.90;;;;;;5033262;28;20405;-78
2022/12/15 12:55:00;;;;;;;37.57;19.10;;;0.80;99.90;;;;;;5032991;28;20950;-78
2022/12/15 12:57:38;;;;;;;53.73;20.07;;;1.00;99.90;;;;;;5033430;28;20449;-78
2022/12/15 13:00:06;;;;;;;41.37;16.80;;;1.40;99.90;;;;;;5033601;28;20402;-78
2022/12/15 13:02:36;;;;;;;44.77;21.20;;;1.60;99.90;;;;;;5032460;28;20418;-78
2022/12/15 13:05:26;;;;;;;38.77;18.70;;;1.80;99.90;;;;;;5031960;28;20473;-78
2022/12/15 13:08:03;;;;;;;47.90;19.23;;;2.10;99.90;;;;;;5037238;28;20406;-78
2022/12/15 13:10:30;;;;;;;46.07;25.20;;;3.20;99.90;;;;;;5036509;28;20449;-78
2022/12/15 13:12:58;;;;;;;44.43;20.83;;;4.90;99.90;;;;;;5037697;28;20405;-78
2022/12/15 13:15:26;;;;;;;41.77;21.90;;;5.90;99.90;;;;;;5036839;28;20907;-78
2022/12/15 13:17:59;;;;;;;29.07;16.30;;;7.30;99.90;;;;;;5036230;28;20421;-79
2022/12/15 13:20:31;;;;;;;33.80;18.47;;;8.40;99.90;;;;;;5038546;28;20628;-78
2022/12/15 13:23:19;;;;;;;38.80;22.17;;;9.00;99.90;;;;;;5039241;28;20453;-78
2022/12/15 13:26:00;;;;;;;36.80;20.53;;;8.50;99.90;;;;;;5030485;28;20458;-78
2022/12/15 13:28:35;;;;;;;27.40;16.50;;;8.00;99.90;;;;;;5036026;28;20422;-78
2022/12/15 13:31:16;;;;;;;24.27;15.47;;;7.50;92.80;;;;;;5037109;28;20512;-79
2022/12/15 13:34:32;;;;;;;26.90;16.47;;;7.10;93.40;;;;;;5041029;28;20442;-79
2022/12/15 13:37:01;;;;;;;24.63;14.27;;;6.60;93.80;;;;;;5042040;28;20505;-79
2022/12/15 13:39:56;;;;;;;24.30;16.80;;;6.30;95.40;;;;;;5038816;28;20410;-79
2022/12/15 13:42:34;;;;;;;24.70;13.57;;;5.90;95.70;;;;;;5040293;28;20425;-79
2022/12/15 13:45:16;;;;;;;28.97;17.00;;;5.50;95.90;;;;;;5040273;28;20468;-79
2022/12/15 13:47:50;;;;;;;27.37;16.00;;;4.90;96.90;;;;;;5035580;28;21022;-78
2022/12/15 13:50:29;;;;;;;28.60;14.77;;;4.20;98.50;;;;;;5037588;28;20934;-78
2022/12/15 13:52:56;;;;;;;29.97;16.00;;;3.70;99.90;;;;;;5035924;28;20414;-78
2022/12/15 13:55:34;;;;;;;27.17;13.97;;;3.40;99.90;;;;;;5035335;28;20418;-78
2022/12/15 13:58:14;;;;;;;25.70;15.43;;;3.20;99.90;;;;;;5043413;28;20900;-78
2022/12/15 14:00:48;;;;;;;34.37;16.73;;;2.80;99.90;;;;;;5036826;28;20430;-77
2022/12/15 14:03:14;;;;;;;25.53;13.40;;;2.50;99.90;;;;;;5035771;28;20499;-78
2022/12/15 14:05:41;;;;;;;30.93;15.90;;;2.30;99.90;;;;;;5034448;28;20406;-77
2022/12/15 14:08:13;;;;;;;28.90;15.90;;;2.20;99.90;;;;;;5034596;28;20194;-77
2022/12/15 14:10:39;;;;;;;36.20;16.70;;;2.10;99.90;;;;;;5036196;28;20394;-77
2022/12/15 14:13:21;;;;;;;33.50;16.17;;;2.00;99.90;;;;;;5034414;28;20416;-78
2022/12/15 14:16:03;;;;;;;28.93;15.93;;;2.20;99.90;;;;;;5036116;28;20229;-77
2022/12/15 14:18:40;;;;;;;28.90;16.37;;;2.70;99.90;;;;;;5033967;28;20421;-77
2022/12/15 14:21:21;;;;;;;30.40;14.43;;;3.30;99.90;;;;;;5034189;28;20441;-77
2022/12/15 14:23:46;;;;;;;29.40;14.47;;;3.80;99.90;;;;;;5034535;28;20516;-77
2022/12/15 14:26:14;;;;;;;30.37;16.00;;;4.10;99.90;;;;;;5034701;28;20433;-77
2022/12/15 14:28:45;;;;;;;34.13;17.93;;;4.30;99.90;;;;;;5035903;28;20684;-78
2022/12/15 14:31:16;;;;;;;28.90;15.00;;;4.50;99.90;;;;;;5035871;28;20513;-77
2022/12/15 14:33:44;;;;;;;27.47;15.10;;;4.60;99.90;;;;;;5034178;28;20449;-78
2022/12/15 14:36:12;;;;;;;27.57;16.03;;;4.70;99.90;;;;;;5033897;28;20896;-78
2022/12/15 14:38:52;;;;;;;29.07;16.50;;;4.60;99.90;;;;;;5035909;28;20406;-78
2022/12/15 14:41:36;;;;;;;23.47;15.53;;;4.40;99.90;;;;;;5037568;28;20485;-78
2022/12/15 14:44:19;;;;;;;25.57;15.10;;;4.20;99.90;;;;;;5032572;28;20840;-77
2022/12/15 14:46:48;;;;;;;28.60;15.80;;;4.00;99.90;;;;;;5034365;28;20410;-77
2022/12/15 14:49:28;;;;;;;28.43;15.40;;;3.70;99.90;;;;;;5033954;28;20418;-77
2022/12/15 14:51:59;;;;;;;21.77;14.00;;;3.30;99.90;;;;;;5034462;28;20403;-78
2022/12/15 14:54:37;;;;;;;29.90;16.63;;;2.90;99.90;;;;;;5033723;28;20426;-78
2022/12/15 14:57:13;;;;;;;27.90;15.27;;;2.50;99.90;;;;;;5034854;28;20416;-78
2022/12/15 14:59:42;;;;;;;27.03;14.57;;;2.00;99.90;;;;;;5034324;28;20404;-78
2022/12/15 15:02:18;;;;;;;25.03;12.33;;;1.60;99.90;;;;;;5034007;28;20493;-78
2022/12/15 15:04:55;;;;;;;24.30;12.97;;;1.10;99.90;;;;;;5033619;28;20489;-77
2022/12/15 15:07:22;;;;;;;38.87;16.67;;;0.70;99.90;;;;;;5034058;28;20800;-78
2022/12/15 15:09:48;;;;;;;29.90;13.50;;;0.40;99.90;;;;;;5032544;28;20687;-78
2022/12/15 15:12:18;;;;;;;32.77;12.93;;;0.10;99.90;;;;;;5032712;28;20409;-77
2022/12/15 15:14:51;;;;;;;31.60;14.23;;;-0.20;99.90;;;;;;5032051;28;20521;-77
2022/12/15 15:17:29;;;;;;;24.90;13.17;;;-0.50;99.90;;;;;;5032155;28;20416;-76
2022/12/15 15:19:56;;;;;;;33.60;13.40;;;-0.80;99.90;;;;;;5032717;28;20819;-78
2022/12/15 15:22:41;;;;;;;27.23;13.73;;;-0.90;99.90;;;;;;5039561;28;20923;-78
2022/12/15 15:25:25;;;;;;;25.57;12.50;;;-1.20;99.90;;;;;;5032363;28;20434;-77